Time;durP1;ratioP1;P1;durP2;ratioP2;P2;SDS_P1;SDS_P2;PMS_P1;PMS_P2;Temp;Humidity;BMP_temperature;BMP_pressure;BME280_temperature;BME280_humidity;BME280_pressure;Samples;Min_cycle;Max_cycle;Signal;HPM_P1;HPM_P2
2020/12/08 00:01:50;;;;;;;;;;;;;;;26.20;27.26;100461.81;5057415;28;776;-39
2020/12/08 00:04:16;;;;;;;;;;;;;;;26.41;26.90;100469.22;5057719;28;725;-39
2020/12/08 00:06:41;;;;;;;;;;;;;;;26.51;26.63;100482.44;5057505;28;1914;-30
2020/12/08 00:09:06;;;;;;;;;;;;;;;26.20;27.23;100470.75;5057612;28;830;-39
2020/12/08 00:11:31;;;;;;;;;;;;;;;26.15;27.19;100465.06;5057680;28;995;-31
2020/12/08 00:13:57;;;;;;;;;;;;;;;25.70;28.07;100468.50;5057684;28;855;-30
2020/12/08 00:16:22;;;;;;;;;;;;;;;26.02;27.33;100469.25;5057899;28;847;-30
2020/12/08 00:18:47;;;;;;;;;;;;;;;26.34;26.75;100471.00;5057422;28;1107;-34
2020/12/08 00:21:13;;;;;;;;;;;;;;;26.51;26.42;100479.72;5057487;28;752;-31
2020/12/08 00:23:38;;;;;;;;;;;;;;;26.23;26.80;100481.16;5058092;28;811;-40
2020/12/08 00:26:03;;;;;;;;;;;;;;;26.23;26.81;100485.72;5057059;28;1914;-34
2020/12/08 00:28:28;;;;;;;;;;;;;;;25.60;27.96;100482.19;5057323;28;803;-40
2020/12/08 00:30:54;;;;;;;;;;;;;;;26.01;27.41;100475.66;5057471;28;839;-31
2020/12/08 00:33:19;;;;;;;;;;;;;;;26.14;27.20;100469.63;5057230;28;812;-32
2020/12/08 00:35:44;;;;;;;;;;;;;;;26.54;26.61;100471.28;5057018;28;818;-39
2020/12/08 00:38:10;;;;;;;;;;;;;;;26.34;26.50;100466.41;5057337;28;871;-39
2020/12/08 00:40:35;;;;;;;;;;;;;;;26.19;26.68;100469.09;5056963;28;1002;-30
2020/12/08 00:43:00;;;;;;;;;;;;;;;26.20;26.57;100464.53;5056979;28;791;-40
2020/12/08 00:45:25;;;;;;;;;;;;;;;25.17;28.46;100463.78;5057126;28;1910;-35
2020/12/08 00:47:51;;;;;;;;;;;;;;;25.18;28.45;100460.91;5057186;28;756;-34
2020/12/08 00:50:16;;;;;;;;;;;;;;;25.60;27.79;100454.41;5056981;28;890;-33
2020/12/08 00:52:41;;;;;;;;;;;;;;;26.09;26.88;100463.94;5057365;28;795;-39
2020/12/08 00:55:07;;;;;;;;;;;;;;;26.24;26.12;100463.97;5056452;28;911;-40
2020/12/08 00:57:32;;;;;;;;;;;;;;;26.24;26.43;100463.97;5056879;28;779;-33
2020/12/08 00:59:57;;;;;;;;;;;;;;;26.22;26.14;100462.50;5056906;28;835;-32
2020/12/08 01:02:23;;;;;;;;;;;;;;;25.20;27.99;100452.66;5056404;28;818;-31
2020/12/08 01:04:48;;;;;;;;;;;;;;;25.28;28.09;100452.59;5056678;28;1965;-40
2020/12/08 01:07:15;;;;;;;;;;;;;;;25.54;27.74;100445.19;5056740;28;800;-31
2020/12/08 01:09:40;;;;;;;;;;;;;;;25.99;26.94;100433.75;5056566;28;787;-38
2020/12/08 01:12:05;;;;;;;;;;;;;;;26.28;25.95;100442.88;5056441;28;947;-41
2020/12/08 01:14:31;;;;;;;;;;;;;;;26.11;26.16;100444.91;5055889;28;799;-40
2020/12/08 01:16:57;;;;;;;;;;;;;;;26.16;25.96;100451.41;5056379;28;803;-33
2020/12/08 01:19:22;;;;;;;;;;;;;;;24.84;28.50;100437.81;5056326;28;1648;-33
2020/12/08 01:21:50;;;;;;;;;;;;;;;25.60;27.34;100443.63;5056684;28;811;-31
2020/12/08 01:24:15;;;;;;;;;;;;;;;26.17;25.96;100428.81;5056039;28;843;-40
2020/12/08 01:26:40;;;;;;;;;;;;;;;26.41;25.68;100429.59;5073178;28;1905;-41
2020/12/08 01:29:05;;;;;;;;;;;;;;;26.26;25.67;100423.34;5076584;28;843;-37
2020/12/08 01:31:31;;;;;;;;;;;;;;;26.05;26.15;100424.91;5076217;28;756;-37
2020/12/08 01:33:56;;;;;;;;;;;;;;;25.08;27.79;100406.44;5076416;28;771;-39
2020/12/08 01:36:22;;;;;;;;;;;;;;;25.94;26.50;100415.44;5076489;28;863;-29
2020/12/08 01:38:47;;;;;;;;;;;;;;;26.12;26.23;100407.00;5075947;28;776;-40
2020/12/08 01:41:12;;;;;;;;;;;;;;;26.39;25.94;100417.34;5063391;28;940;-34
2020/12/08 01:43:54;;;;;;;;;;;;;;;26.30;25.51;100419.25;5056400;28;779;-40
2020/12/08 01:46:23;;;;;;;;;;;;;;;26.08;26.14;100418.31;5055887;28;1906;-31
2020/12/08 01:48:49;;;;;;;;;;;;;;;25.80;26.26;100408.97;5056270;28;783;-29
2020/12/08 01:51:17;;;;;;;;;;;;;;;25.00;27.79;100406.50;5056370;28;752;-29
2020/12/08 01:53:43;;;;;;;;;;;;;;;25.36;27.41;100405.91;5055882;28;807;-39
2020/12/08 01:56:09;;;;;;;;;;;;;;;25.67;26.83;100404.22;5037911;28;959;-40
2020/12/08 01:58:34;;;;;;;;;;;;;;;26.24;25.71;100393.03;5056208;28;840;-39
2020/12/08 02:00:59;;;;;;;;;;;;;;;26.08;25.48;100413.75;5055811;28;760;-32
2020/12/08 02:03:26;;;;;;;;;;;;;;;26.07;25.66;100398.63;5056213;28;836;-39
2020/12/08 02:05:51;;;;;;;;;;;;;;;25.14;27.30;100405.72;5056120;28;1963;-33
2020/12/08 02:08:25;;;;;;;;;;;;;;;25.72;26.33;100396.44;5055711;28;764;-41
2020/12/08 02:10:50;;;;;;;;;;;;;;;26.28;25.71;100397.88;5055983;28;995;-41
2020/12/08 02:13:17;;;;;;;;;;;;;;;26.43;25.34;100393.50;5056149;28;748;-38
2020/12/08 02:15:42;;;;;;;;;;;;;;;26.29;25.51;100382.53;5055367;28;830;-29
2020/12/08 02:18:07;;;;;;;;;;;;;;;26.27;25.18;100388.13;5055483;28;1005;-32
2020/12/08 02:20:33;;;;;;;;;;;;;;;26.23;25.13;100384.13;5055933;28;820;-31
2020/12/08 02:22:58;;;;;;;;;;;;;;;25.08;26.96;100360.69;5055629;28;748;-42
2020/12/08 02:25:23;;;;;;;;;;;;;;;25.38;27.10;100368.03;5057023;28;1913;-33
2020/12/08 02:27:49;;;;;;;;;;;;;;;25.54;26.89;100359.00;5059863;28;760;-40
2020/12/08 02:30:14;;;;;;;;;;;;;;;26.22;25.57;100362.72;5059712;28;815;-39
2020/12/08 02:32:39;;;;;;;;;;;;;;;26.20;25.34;100362.91;5059621;28;803;-40
2020/12/08 02:35:05;;;;;;;;;;;;;;;26.17;25.69;100355.22;5059461;28;828;-32
2020/12/08 02:37:30;;;;;;;;;;;;;;;25.43;26.80;100361.13;5059856;28;772;-31
2020/12/08 02:39:55;;;;;;;;;;;;;;;25.16;27.32;100357.09;5059144;28;959;-31
2020/12/08 02:42:20;;;;;;;;;;;;;;;25.21;27.15;100343.94;5059762;28;818;-41
2020/12/08 02:44:46;;;;;;;;;;;;;;;25.74;26.47;100369.31;5059224;28;1909;-34
2020/12/08 02:47:11;;;;;;;;;;;;;;;26.25;25.52;100367.75;5059313;28;883;-33
2020/12/08 02:49:36;;;;;;;;;;;;;;;26.17;25.63;100376.78;5059593;28;767;-41
2020/12/08 02:52:02;;;;;;;;;;;;;;;26.19;25.34;100380.13;5059485;28;748;-40
2020/12/08 02:54:27;;;;;;;;;;;;;;;25.24;27.20;100367.00;5059131;28;740;-41
2020/12/08 02:56:52;;;;;;;;;;;;;;;25.21;27.23;100365.47;5058880;28;1005;-34
2020/12/08 02:59:18;;;;;;;;;;;;;;;25.50;26.77;100355.00;5059224;28;852;-41
2020/12/08 03:01:43;;;;;;;;;;;;;;;26.14;25.48;100350.19;5058995;28;803;-32
2020/12/08 03:04:08;;;;;;;;;;;;;;;26.19;25.29;100358.56;5058794;28;772;-40
2020/12/08 03:06:33;;;;;;;;;;;;;;;26.27;25.19;100350.38;5059044;28;1898;-30
2020/12/08 03:08:59;;;;;;;;;;;;;;;26.16;25.02;100343.56;5058798;28;810;-29
2020/12/08 03:11:33;;;;;;;;;;;;;;;25.72;25.92;100355.16;5073005;28;943;-30
2020/12/08 03:13:58;;;;;;;;;;;;;;;25.98;25.81;100346.66;5079048;28;835;-42
2020/12/08 03:16:23;;;;;;;;;;;;;;;26.22;25.23;100347.41;5078627;28;995;-30
2020/12/08 03:18:49;;;;;;;;;;;;;;;26.31;25.15;100364.28;5078637;28;1080;-41
2020/12/08 03:21:14;;;;;;;;;;;;;;;26.15;25.41;100371.56;5078587;28;743;-31
2020/12/08 03:23:39;;;;;;;;;;;;;;;26.06;25.44;100379.94;5078446;28;804;-41
2020/12/08 03:26:05;;;;;;;;;;;;;;;25.28;26.77;100393.38;5066788;28;1964;-39
2020/12/08 03:28:30;;;;;;;;;;;;;;;25.99;25.58;100404.09;5058649;28;799;-30
2020/12/08 03:30:55;;;;;;;;;;;;;;;26.24;24.87;100417.31;5058187;28;795;-30
2020/12/08 03:33:20;;;;;;;;;;;;;;;26.40;24.84;100419.84;5058960;28;760;-41
2020/12/08 03:35:46;;;;;;;;;;;;;;;26.27;24.82;100425.03;5058737;28;858;-41
2020/12/08 03:38:11;;;;;;;;;;;;;;;26.22;24.80;100425.59;5057239;28;767;-32
2020/12/08 03:40:36;;;;;;;;;;;;;;;25.14;26.39;100429.13;5058244;28;944;-40
2020/12/08 03:43:02;;;;;;;;;;;;;;;24.34;27.38;100429.91;5058387;28;815;-31
2020/12/08 03:45:27;;;;;;;;;;;;;;;24.43;27.32;100433.44;5057825;28;1930;-41
2020/12/08 03:47:52;;;;;;;;;;;;;;;25.52;24.98;100433.75;5058340;28;855;-30
2020/12/08 03:50:17;;;;;;;;;;;;;;;26.15;24.12;100451.59;5058448;28;748;-40
2020/12/08 03:52:43;;;;;;;;;;;;;;;26.07;23.91;100457.06;5058222;28;772;-31
2020/12/08 03:55:08;;;;;;;;;;;;;;;25.78;22.87;100454.13;5057811;28;963;-42
2020/12/08 03:57:33;;;;;;;;;;;;;;;24.64;25.95;100457.06;5058410;28;756;-32
2020/12/08 03:59:58;;;;;;;;;;;;;;;23.90;26.35;100442.75;5057742;28;870;-41
2020/12/08 04:02:24;;;;;;;;;;;;;;;23.56;25.46;100449.09;5058015;28;777;-36
2020/12/08 04:04:50;;;;;;;;;;;;;;;23.09;25.22;100444.09;5057810;28;1902;-38
2020/12/08 04:07:15;;;;;;;;;;;;;;;22.59;26.38;100448.41;5057834;28;835;-35
2020/12/08 04:09:40;;;;;;;;;;;;;;;22.40;26.49;100442.28;5057948;28;887;-34
2020/12/08 04:12:06;;;;;;;;;;;;;;;23.17;25.97;100439.78;5077731;28;952;-35
2020/12/08 04:14:31;;;;;;;;;;;;;;;22.41;26.35;100443.97;5077377;28;816;-37
2020/12/08 04:16:56;;;;;;;;;;;;;;;21.86;26.58;100448.59;5077504;28;508;-39
2020/12/08 04:19:21;;;;;;;;;;;;;;;21.71;26.35;100443.75;5077502;28;1106;-33
2020/12/08 04:21:47;;;;;;;;;;;;;;;22.07;26.42;100440.22;5077407;28;767;-38
2020/12/08 04:24:12;;;;;;;;;;;;;;;21.94;26.37;100437.13;5077577;28;828;-35
2020/12/08 04:26:37;;;;;;;;;;;;;;;22.17;26.15;100442.78;5061241;28;1942;-38
2020/12/08 04:29:03;;;;;;;;;;;;;;;20.98;27.33;100437.50;5056964;28;800;-32
2020/12/08 04:31:28;;;;;;;;;;;;;;;21.89;26.21;100445.59;5057232;28;973;-33
2020/12/08 04:33:53;;;;;;;;;;;;;;;22.44;26.29;100426.72;5057225;28;756;-40
2020/12/08 04:36:19;;;;;;;;;;;;;;;22.05;25.96;100441.38;5056880;28;799;-35
2020/12/08 04:38:44;;;;;;;;;;;;;;;22.16;25.41;100445.63;5057038;28;835;-36
2020/12/08 04:41:10;;;;;;;;;;;;;;;22.09;26.07;100443.59;5056883;28;956;-34
2020/12/08 04:43:41;;;;;;;;;;;;;;;22.68;24.80;100460.03;5056995;28;791;-31
2020/12/08 04:46:07;;;;;;;;;;;;;;;22.53;25.40;100457.94;5057150;28;1967;-34
2020/12/08 04:48:34;;;;;;;;;;;;;;;23.67;24.17;100464.88;5056937;28;764;-31
2020/12/08 04:51:00;;;;;;;;;;;;;;;24.01;24.55;100465.72;5056982;28;760;-33
2020/12/08 04:53:25;;;;;;;;;;;;;;;23.95;24.66;100463.72;5057040;28;812;-29
2020/12/08 04:55:50;;;;;;;;;;;;;;;23.42;25.26;100464.03;5056831;28;915;-39
2020/12/08 04:58:16;;;;;;;;;;;;;;;22.93;26.37;100460.16;5057076;28;799;-33
2020/12/08 05:00:41;;;;;;;;;;;;;;;23.69;25.20;100467.41;5056871;28;832;-40
2020/12/08 05:03:07;;;;;;;;;;;;;;;24.19;26.21;100454.81;5057175;28;788;-29
2020/12/08 05:05:37;;;;;;;;;;;;;;;22.50;24.87;100467.13;5056879;28;1902;-40
2020/12/08 05:08:07;;;;;;;;;;;;;;;21.24;26.16;100464.38;5056666;28;811;-31
2020/12/08 05:10:33;;;;;;;;;;;;;;;20.35;27.39;100462.06;5056389;28;967;-30
2020/12/08 05:12:58;;;;;;;;;;;;;;;20.23;28.29;100461.38;5058938;28;856;-31
2020/12/08 05:15:23;;;;;;;;;;;;;;;16.91;31.37;100447.72;5075901;28;868;-30
2020/12/08 05:17:48;;;;;;;;;;;;;;;20.71;26.95;100466.72;5075543;28;1080;-29
2020/12/08 05:20:14;;;;;;;;;;;;;;;23.13;23.56;100452.69;5076696;28;831;-31
2020/12/08 05:22:53;;;;;;;;;;;;;;;23.26;23.84;100454.88;5075568;28;828;-30
2020/12/08 05:25:18;;;;;;;;;;;;;;;23.42;24.38;100455.97;5070999;28;1918;-31
2020/12/08 05:27:44;;;;;;;;;;;;;;;23.81;24.52;100459.84;5056472;28;850;-34
2020/12/08 05:30:09;;;;;;;;;;;;;;;24.76;23.54;100456.69;5073547;28;806;-30
2020/12/08 05:32:37;;;;;;;;;;;;;;;25.44;22.86;100451.63;5076468;28;748;-31
2020/12/08 05:35:04;;;;;;;;;;;;;;;25.49;22.72;100445.72;5076443;28;792;-32
2020/12/08 05:37:32;;;;;;;;;;;;;;;25.35;23.18;100441.09;5076385;28;719;-31
2020/12/08 05:39:57;;;;;;;;;;;;;;;25.65;22.72;100443.94;5039303;28;1076;-29
2020/12/08 05:42:22;;;;;;;;;;;;;;;25.88;22.53;100440.38;5038548;28;769;-29
2020/12/08 05:44:48;;;;;;;;;;;;;;;25.96;22.45;100452.97;5074226;28;1883;-28
2020/12/08 05:47:20;;;;;;;;;;;;;;;26.21;22.23;100450.03;5076323;28;752;-28
2020/12/08 05:49:45;;;;;;;;;;;;;;;26.44;22.10;100460.78;5076598;28;834;-28
2020/12/08 05:52:10;;;;;;;;;;;;;;;26.06;22.77;100452.72;5075869;28;826;-39
2020/12/08 05:54:36;;;;;;;;;;;;;;;26.80;22.22;100461.88;5076160;28;719;-35
2020/12/08 05:57:12;;;;;;;;;;;;;;;26.94;22.10;100465.59;5056957;28;947;-35
2020/12/08 05:59:37;;;;;;;;;;;;;;;27.10;22.27;100475.34;5055635;28;883;-35
2020/12/08 06:02:02;;;;;;;;;;;;;;;27.20;22.31;100466.94;5060297;28;775;-36
2020/12/08 06:04:38;;;;;;;;;;;;;;;27.20;22.46;100479.59;5059984;28;812;-35
2020/12/08 06:07:03;;;;;;;;;;;;;;;27.32;22.42;100490.75;5061797;28;1964;-32
2020/12/08 06:09:33;;;;;;;;;;;;;;;27.37;22.37;100483.75;5062138;28;796;-33
2020/12/08 06:12:00;;;;;;;;;;;;;;;27.38;22.73;100498.09;5061014;28;975;-40
2020/12/08 06:14:32;;;;;;;;;;;;;;;27.54;22.66;100496.19;5059708;28;822;-30
2020/12/08 06:16:58;;;;;;;;;;;;;;;27.47;22.76;100494.25;5063015;28;869;-34
2020/12/08 06:19:24;;;;;;;;;;;;;;;27.51;22.87;100500.94;5079258;28;1083;-33
2020/12/08 06:21:49;;;;;;;;;;;;;;;27.61;22.73;100502.50;5079742;28;828;-29
2020/12/08 06:24:14;;;;;;;;;;;;;;;27.53;22.95;100499.91;5079899;28;802;-28
2020/12/08 06:26:40;;;;;;;;;;;;;;;27.68;22.87;100502.53;5062819;28;1910;-30
2020/12/08 06:29:07;;;;;;;;;;;;;;;28.03;22.80;100496.47;5059614;28;771;-29
2020/12/08 06:31:39;;;;;;;;;;;;;;;28.16;22.62;100493.81;5059701;28;760;-33
2020/12/08 06:34:04;;;;;;;;;;;;;;;28.30;22.51;100483.94;5059416;28;824;-30
2020/12/08 06:36:29;;;;;;;;;;;;;;;28.05;22.86;100491.66;5059526;28;867;-30
2020/12/08 06:38:58;;;;;;;;;;;;;;;27.91;22.83;100494.25;5059539;28;812;-31
2020/12/08 06:41:32;;;;;;;;;;;;;;;28.27;22.26;100499.75;5041471;28;1011;-33
2020/12/08 06:43:58;;;;;;;;;;;;;;;28.34;22.33;100481.72;5059317;28;803;-33
2020/12/08 06:46:23;;;;;;;;;;;;;;;28.55;22.42;100497.03;5059321;28;1906;-33
2020/12/08 06:49:01;;;;;;;;;;;;;;;28.62;22.36;100496.25;5059070;28;886;-34
2020/12/08 06:51:26;;;;;;;;;;;;;;;28.73;22.24;100490.25;5059178;28;807;-29
2020/12/08 06:53:52;;;;;;;;;;;;;;;28.92;22.04;100488.69;5041292;28;959;-36
2020/12/08 06:56:26;;;;;;;;;;;;;;;28.67;22.50;100486.50;5058975;28;928;-30
2020/12/08 06:58:51;;;;;;;;;;;;;;;28.59;22.38;100492.06;5059002;28;847;-34
2020/12/08 07:01:16;;;;;;;;;;;;;;;28.49;22.78;100497.84;5059116;28;775;-33
2020/12/08 07:03:41;;;;;;;;;;;;;;;27.94;23.52;100499.28;5058946;28;871;-38
2020/12/08 07:06:07;;;;;;;;;;;;;;;28.17;23.11;100492.81;5041522;28;1910;-32
2020/12/08 07:08:32;;;;;;;;;;;;;;;28.36;22.73;100488.59;5059279;28;788;-32
2020/12/08 07:10:57;;;;;;;;;;;;;;;28.34;22.76;100487.13;5040634;28;1043;-31
2020/12/08 07:13:23;;;;;;;;;;;;;;;28.58;22.71;100490.38;5058205;28;760;-31
2020/12/08 07:15:48;;;;;;;;;;;;;;;28.88;22.01;100484.72;5058750;28;1051;-36
2020/12/08 07:18:13;;;;;;;;;;;;;;;29.05;22.13;100496.06;5058633;28;1235;-33
2020/12/08 07:20:39;;;;;;;;;;;;;;;29.21;21.77;100497.56;5058132;28;825;-30
2020/12/08 07:23:05;;;;;;;;;;;;;;;29.35;21.94;100497.63;5058959;28;756;-29
2020/12/08 07:25:30;;;;;;;;;;;;;;;29.51;21.40;100496.38;5058236;28;1905;-30
2020/12/08 07:27:55;;;;;;;;;;;;;;;29.47;21.74;100497.84;5058505;28;804;-31
2020/12/08 07:30:22;;;;;;;;;;;;;;;29.44;21.67;100493.69;5058517;28;780;-30
2020/12/08 07:32:47;;;;;;;;;;;;;;;29.65;21.71;100496.44;5058378;28;867;-30
2020/12/08 07:35:25;;;;;;;;;;;;;;;29.67;21.61;100508.75;5060848;28;760;-30
2020/12/08 07:37:51;;;;;;;;;;;;;;;29.79;21.62;100506.28;5069947;28;804;-36
2020/12/08 07:40:16;;;;;;;;;;;;;;;29.76;21.93;100506.66;5078193;28;947;-30
2020/12/08 07:42:45;;;;;;;;;;;;;;;29.87;21.77;100507.09;5078155;28;864;-31
2020/12/08 07:45:11;;;;;;;;;;;;;;;29.98;21.76;100505.66;5077763;28;1989;-37
2020/12/08 07:47:36;;;;;;;;;;;;;;;30.15;21.33;100514.19;5078269;28;780;-36
2020/12/08 07:50:02;;;;;;;;;;;;;;;29.56;22.08;100506.63;5078055;28;832;-28
2020/12/08 07:52:28;;;;;;;;;;;;;;;29.15;22.80;100509.22;5077998;28;794;-32
2020/12/08 07:54:53;;;;;;;;;;;;;;;29.62;22.19;100510.41;5076353;28;962;-30
2020/12/08 07:57:18;;;;;;;;;;;;;;;29.69;22.00;100508.56;5057928;28;772;-32
2020/12/08 07:59:43;;;;;;;;;;;;;;;29.74;22.14;100510.66;5057828;28;811;-30
2020/12/08 08:02:09;;;;;;;;;;;;;;;29.68;22.39;100528.56;5058075;28;832;-31
2020/12/08 08:04:34;;;;;;;;;;;;;;;29.77;22.07;100521.91;5057964;28;799;-31
2020/12/08 08:06:59;;;;;;;;;;;;;;;29.67;21.89;100516.91;5057617;28;1977;-30
2020/12/08 08:09:25;;;;;;;;;;;;;;;29.19;22.82;100520.50;5057980;28;787;-30
2020/12/08 08:11:50;;;;;;;;;;;;;;;29.15;22.91;100522.75;5056997;28;955;-30
2020/12/08 08:14:15;;;;;;;;;;;;;;;29.57;22.66;100519.97;5057898;28;741;-30
2020/12/08 08:16:40;;;;;;;;;;;;;;;29.59;22.44;100527.94;5057643;28;747;-32
2020/12/08 08:19:06;;;;;;;;;;;;;;;29.57;22.55;100528.09;5057410;28;1127;-30
2020/12/08 08:21:31;;;;;;;;;;;;;;;29.62;22.67;100530.22;5057484;28;865;-30
2020/12/08 08:24:00;;;;;;;;;;;;;;;29.70;22.63;100529.19;5057207;28;838;-30
2020/12/08 08:26:25;;;;;;;;;;;;;;;29.72;22.62;100521.69;5057212;28;1979;-31
2020/12/08 08:28:50;;;;;;;;;;;;;;;29.88;22.19;100530.47;5057286;28;820;-30
2020/12/08 08:31:16;;;;;;;;;;;;;;;29.97;22.16;100533.81;5057770;28;1032;-31
2020/12/08 08:33:42;;;;;;;;;;;;;;;30.00;22.25;100534.22;5057105;28;768;-33
2020/12/08 08:36:07;;;;;;;;;;;;;;;30.05;21.86;100539.88;5057288;28;756;-30
2020/12/08 08:38:32;;;;;;;;;;;;;;;30.10;22.01;100544.66;5057628;28;744;-30
2020/12/08 08:40:58;;;;;;;;;;;;;;;30.22;21.98;100544.91;5056768;28;999;-30
2020/12/08 08:43:23;;;;;;;;;;;;;;;30.25;21.99;100547.19;5039542;28;812;-29
2020/12/08 08:45:49;;;;;;;;;;;;;;;30.14;21.85;100537.78;5057483;28;1914;-31
2020/12/08 08:48:14;;;;;;;;;;;;;;;29.45;22.50;100532.44;5056730;28;902;-30
2020/12/08 08:50:39;;;;;;;;;;;;;;;29.43;23.16;100529.09;5057033;28;795;-30
2020/12/08 08:53:04;;;;;;;;;;;;;;;29.88;22.57;100535.91;5057082;28;807;-31
2020/12/08 08:55:30;;;;;;;;;;;;;;;29.92;22.29;100537.16;5056434;28;975;-31
2020/12/08 08:57:55;;;;;;;;;;;;;;;29.92;22.53;100542.56;5056953;28;883;-31
2020/12/08 09:00:20;;;;;;;;;;;;;;;29.97;22.51;100537.34;5057028;28;756;-30
2020/12/08 09:02:46;;;;;;;;;;;;;;;29.99;22.44;100537.16;5056708;28;908;-30
2020/12/08 09:05:13;;;;;;;;;;;;;;;30.14;22.33;100539.66;5056768;28;1906;-31
2020/12/08 09:07:39;;;;;;;;;;;;;;;30.15;22.29;100530.47;5059667;28;802;-30
2020/12/08 09:10:04;;;;;;;;;;;;;;;30.16;22.30;100535.69;5073111;28;819;-28
2020/12/08 09:12:29;;;;;;;;;;;;;;;30.24;21.95;100541.97;5075821;28;798;-30
2020/12/08 09:14:57;;;;;;;;;;;;;;;30.29;22.21;100534.91;5076513;28;807;-30
2020/12/08 09:17:23;;;;;;;;;;;;;;;30.37;21.81;100536.53;5075920;28;1230;-28
2020/12/08 09:19:48;;;;;;;;;;;;;;;30.51;21.92;100528.38;5076360;28;847;-27
2020/12/08 09:22:13;;;;;;;;;;;;;;;29.96;22.49;100532.16;5076611;28;811;-28
2020/12/08 09:24:39;;;;;;;;;;;;;;;27.42;21.38;100534.50;5076230;28;795;-27
2020/12/08 09:27:06;;;;;;;;;;;;;;;27.98;22.96;100535.72;5055919;28;2036;-27
2020/12/08 09:29:31;;;;;;;;;;;;;;;28.81;22.74;100530.69;5068744;28;817;-28
2020/12/08 09:31:56;;;;;;;;;;;;;;;29.15;22.34;100528.19;5076112;28;807;-27
2020/12/08 09:34:22;;;;;;;;;;;;;;;28.60;23.18;100535.19;5076111;28;796;-28
2020/12/08 09:36:48;;;;;;;;;;;;;;;27.97;24.03;100536.75;5076538;28;776;-27
2020/12/08 09:39:14;;;;;;;;;;;;;;;27.85;24.18;100528.31;5076245;28;772;-26
2020/12/08 09:41:39;;;;;;;;;;;;;;;27.73;24.26;100528.00;5059535;28;943;-27
2020/12/08 09:44:08;;;;;;;;;;;;;;;27.54;24.50;100534.00;5071706;28;887;-30
2020/12/08 09:46:34;;;;;;;;;;;;;;;27.56;24.76;100538.16;5076070;28;1910;-28
2020/12/08 09:48:59;;;;;;;;;;;;;;;27.46;24.97;100548.47;5076061;28;772;-28
2020/12/08 09:51:24;;;;;;;;;;;;;;;27.33;24.87;100541.03;5076071;28;692;-30
2020/12/08 09:53:49;;;;;;;;;;;;;;;27.23;25.25;100544.88;5076064;28;788;-27
2020/12/08 09:56:15;;;;;;;;;;;;;;;27.13;25.26;100547.03;5063156;28;1113;-28
2020/12/08 09:58:40;;;;;;;;;;;;;;;27.06;25.48;100543.41;5056133;28;863;-27
2020/12/08 10:01:05;;;;;;;;;;;;;;;26.97;25.46;100545.34;5056018;28;807;-27
2020/12/08 10:03:31;;;;;;;;;;;;;;;25.97;26.69;100543.56;5055706;28;542;-31
2020/12/08 10:05:56;;;;;;;;;;;;;;;26.88;25.48;100558.94;5056026;28;1971;-29
2020/12/08 10:08:21;;;;;;;;;;;;;;;27.19;25.11;100553.53;5056048;28;831;-30
2020/12/08 10:10:46;;;;;;;;;;;;;;;27.51;24.69;100551.41;5055576;28;959;-28
2020/12/08 10:13:12;;;;;;;;;;;;;;;27.38;24.53;100552.94;5055981;28;791;-28
2020/12/08 10:15:37;;;;;;;;;;;;;;;27.24;24.87;100564.63;5055838;28;829;-28
2020/12/08 10:18:03;;;;;;;;;;;;;;;27.11;24.94;100551.78;5038356;28;1236;-29
2020/12/08 10:20:28;;;;;;;;;;;;;;;27.07;25.28;100547.78;5055490;28;780;-32
2020/12/08 10:22:53;;;;;;;;;;;;;;;27.21;25.23;100548.81;5055743;28;764;-32
2020/12/08 10:25:19;;;;;;;;;;;;;;;27.72;24.65;100553.34;5055471;28;1906;-28
2020/12/08 10:27:44;;;;;;;;;;;;;;;27.70;24.58;100552.69;5055406;28;862;-29
2020/12/08 10:30:09;;;;;;;;;;;;;;;27.06;24.72;100556.91;5056153;28;728;-28
2020/12/08 10:32:34;;;;;;;;;;;;;;;26.66;25.85;100552.56;5055747;28;840;-27
2020/12/08 10:35:00;;;;;;;;;;;;;;;26.33;26.63;100550.19;5055577;28;791;-28
2020/12/08 10:37:25;;;;;;;;;;;;;;;26.71;26.13;100555.56;5056148;28;771;-28
2020/12/08 10:39:51;;;;;;;;;;;;;;;27.03;25.75;100555.41;5055489;28;1026;-27
2020/12/08 10:42:16;;;;;;;;;;;;;;;27.00;25.57;100550.34;5055513;28;795;-29
2020/12/08 10:44:41;;;;;;;;;;;;;;;26.97;25.83;100556.97;5055626;28;729;-28
2020/12/08 10:47:07;;;;;;;;;;;;;;;27.33;25.52;100555.38;5058012;28;1918;-28
2020/12/08 10:49:32;;;;;;;;;;;;;;;27.08;25.47;100558.38;5059178;28;776;-31
2020/12/08 10:51:57;;;;;;;;;;;;;;;26.89;25.74;100568.69;5059694;28;820;-29
2020/12/08 10:54:22;;;;;;;;;;;;;;;27.04;25.87;100567.06;5058929;28;827;-28
2020/12/08 10:56:51;;;;;;;;;;;;;;;27.37;25.35;100555.84;5040778;28;956;-31
2020/12/08 10:59:16;;;;;;;;;;;;;;;27.59;25.10;100564.00;5058949;28;830;-28
2020/12/08 11:01:42;;;;;;;;;;;;;;;27.08;25.70;100563.78;5059235;28;780;-33
2020/12/08 11:04:07;;;;;;;;;;;;;;;26.92;25.96;100567.50;5059631;28;749;-32
2020/12/08 11:06:32;;;;;;;;;;;;;;;25.80;27.87;100563.41;5059027;28;1964;-30
2020/12/08 11:08:58;;;;;;;;;;;;;;;26.70;26.53;100562.00;5058631;28;768;-29
2020/12/08 11:11:23;;;;;;;;;;;;;;;27.06;26.08;100571.22;5058696;28;955;-28
2020/12/08 11:13:49;;;;;;;;;;;;;;;26.50;26.87;100565.22;5058850;28;752;-29
2020/12/08 11:16:14;;;;;;;;;;;;;;;27.00;25.26;100567.41;5058996;28;751;-30
2020/12/08 11:18:39;;;;;;;;;;;;;;;23.64;26.97;100553.00;5058272;28;1084;-35
2020/12/08 11:21:05;;;;;;;;;;;;;;;23.24;26.84;100546.28;5058792;28;804;-29
2020/12/08 11:23:30;;;;;;;;;;;;;;;22.65;26.36;100547.00;5058383;28;848;-31
2020/12/08 11:25:55;;;;;;;;;;;;;;;23.84;25.42;100556.22;5057944;28;1901;-29
2020/12/08 11:28:20;;;;;;;;;;;;;;;25.44;24.04;100543.19;5058686;28;796;-30
2020/12/08 11:30:46;;;;;;;;;;;;;;;26.27;23.81;100555.31;5040203;28;1291;-29
2020/12/08 11:33:11;;;;;;;;;;;;;;;26.65;23.94;100553.63;5058393;28;791;-32
2020/12/08 11:35:36;;;;;;;;;;;;;;;26.26;25.34;100556.31;5058604;28;847;-30
2020/12/08 11:38:02;;;;;;;;;;;;;;;26.14;25.42;100558.59;5058205;28;772;-30
2020/12/08 11:40:27;;;;;;;;;;;;;;;26.40;25.22;100556.56;5058068;28;1058;-29
2020/12/08 11:42:52;;;;;;;;;;;;;;;26.81;24.51;100555.28;5058287;28;795;-30
2020/12/08 11:45:17;;;;;;;;;;;;;;;26.72;24.76;100553.72;5058049;28;1902;-32
2020/12/08 11:47:43;;;;;;;;;;;;;;;26.49;25.19;100554.63;5058277;28;752;-30
2020/12/08 11:50:08;;;;;;;;;;;;;;;26.04;25.77;100563.41;5058331;28;768;-32
2020/12/08 11:52:33;;;;;;;;;;;;;;;25.63;26.88;100567.19;5057912;28;768;-35
2020/12/08 11:54:59;;;;;;;;;;;;;;;26.22;25.90;100565.78;5057673;28;983;-32
2020/12/08 11:57:24;;;;;;;;;;;;;;;26.31;25.94;100571.13;5057993;28;768;-29
2020/12/08 11:59:50;;;;;;;;;;;;;;;26.40;25.86;100561.94;5057796;28;751;-27
2020/12/08 12:02:15;;;;;;;;;;;;;;;26.93;25.06;100574.56;5057902;28;839;-29
2020/12/08 12:04:40;;;;;;;;;;;;;;;26.69;24.54;100571.13;5057910;28;795;-31
2020/12/08 12:07:05;;;;;;;;;;;;;;;26.44;25.27;100582.16;5057837;28;1911;-28
2020/12/08 12:09:31;;;;;;;;;;;;;;;26.23;25.86;100582.78;5057813;28;954;-29
2020/12/08 12:11:56;;;;;;;;;;;;;;;26.84;25.09;100581.09;5057486;28;928;-32
2020/12/08 12:14:21;;;;;;;;;;;;;;;27.19;24.54;100575.16;5057666;28;783;-29
2020/12/08 12:16:47;;;;;;;;;;;;;;;26.99;24.91;100581.91;5057490;28;867;-37
2020/12/08 12:19:12;;;;;;;;;;;;;;;26.63;25.24;100578.09;5057475;28;1276;-31
2020/12/08 12:21:37;;;;;;;;;;;;;;;25.99;26.26;100580.09;5057583;28;788;-30
2020/12/08 12:24:02;;;;;;;;;;;;;;;26.43;25.67;100587.69;5057160;28;1018;-35
2020/12/08 12:26:28;;;;;;;;;;;;;;;26.64;23.46;100590.53;5057188;28;1969;-32
2020/12/08 12:28:53;;;;;;;;;;;;;;;26.86;22.94;100600.63;5057434;28;764;-32
2020/12/08 12:31:19;;;;;;;;;;;;;;;27.00;23.62;100607.06;5057263;28;878;-41
2020/12/08 12:33:44;;;;;;;;;;;;;;;27.26;23.31;100611.16;5057622;28;768;-34
2020/12/08 12:36:09;;;;;;;;;;;;;;;26.94;23.71;100603.25;5057254;28;811;-33
2020/12/08 12:38:35;;;;;;;;;;;;;;;26.49;24.31;100616.66;5057172;28;820;-39
2020/12/08 12:41:00;;;;;;;;;;;;;;;26.38;24.34;100604.44;5057071;28;1002;-31
2020/12/08 12:43:25;;;;;;;;;;;;;;;26.88;23.90;100609.38;5057063;28;882;-30
2020/12/08 12:45:51;;;;;;;;;;;;;;;26.12;25.04;100609.16;5057309;28;1890;-31
2020/12/08 12:48:16;;;;;;;;;;;;;;;26.80;23.90;100618.38;5056748;28;808;-30